| time (UTC) | temp F | wind direction | speed knots | gust knots | rain 1hr in | rain 24hr in | rain mn in | humidity % | barometer mb |
| 20260505180502 | 79 | 143 | 3.5 | 4.3 | 0.00 | 0.00 | 0.00 | 58 | 1017.0 |
| 20260505175500 | 79 | 143 | 3.5 | 4.3 | 0.00 | 0.00 | 0.00 | 58 | 1017.0 |
| 20260505174457 | 79 | 143 | 3.5 | 4.3 | 0.00 | 0.00 | 0.00 | 58 | 1017.0 |
| 20260505173455 | 79 | 143 | 3.5 | 4.3 | 0.00 | 0.00 | 0.00 | 58 | 1017.0 |
| 20260505172452 | 79 | 143 | 3.5 | 4.3 | 0.00 | 0.00 | 0.00 | 58 | 1018.0 |
| 20260505171451 | 79 | 143 | 3.5 | 4.3 | 0.00 | 0.00 | 0.00 | 58 | 1018.0 |
| 20260505170449 | 79 | 143 | 3.5 | 4.3 | 0.00 | 0.00 | 0.00 | 58 | 1018.0 |
| 20260505165448 | 79 | 143 | 3.5 | 4.3 | 0.00 | 0.00 | 0.00 | 58 | 1018.0 |
| 20260505164447 | 79 | 143 | 3.5 | 4.3 | 0.00 | 0.00 | 0.00 | 58 | 1018.0 |
| 20260505163445 | 79 | 143 | 3.5 | 4.3 | 0.00 | 0.00 | 0.00 | 58 | 1018.0 |
| 20260505162444 | 79 | 143 | 3.5 | 4.3 | 0.00 | 0.00 | 0.00 | 58 | 1018.0 |
| 20260505161443 | 79 | 143 | 3.5 | 4.3 | 0.00 | 0.00 | 0.00 | 58 | 1018.0 |
| 20260505160441 | 79 | 143 | 3.5 | 4.3 | 0.00 | 0.00 | 0.00 | 58 | 1018.0 |
| 20260505152436 | 79 | 143 | 3.5 | 4.3 | 0.00 | 0.00 | 0.00 | 58 | 1018.0 |
| 20260505151435 | 79 | 143 | 3.5 | 4.3 | 0.00 | 0.00 | 0.00 | 58 | 1018.0 |
| 20260505150433 | 79 | 143 | 3.5 | 4.3 | 0.00 | 0.00 | 0.00 | 58 | 1018.0 |
| 20260505140425 | 75 | 137 | 2.6 | 3.5 | 0.00 | 0.00 | 0.00 | 63 | 1018.0 |
| 20260505124413 | 73 | 141 | 2.6 | 3.5 | 0.00 | 0.00 | 0.00 | 75 | 1018.0 |
| 20260505123411 | 70 | 330 | 0.9 | 0.9 | 0.00 | 0.00 | 0.00 | 85 | 1018.0 |
| 20260505122410 | 70 | 330 | 0.9 | 0.9 | 0.00 | 0.00 | 0.00 | 85 | 1017.0 |
| 20260505121409 | 70 | 330 | 0.9 | 0.9 | 0.00 | 0.00 | 0.00 | 85 | 1017.0 |
| 20260505120408 | 70 | 330 | 0.9 | 0.9 | 0.00 | 0.00 | 0.00 | 85 | 1017.0 |
| 20260505115406 | 70 | 330 | 0.9 | 0.9 | 0.00 | 0.00 | 0.00 | 85 | 1018.0 |
| 20260505114405 | 70 | 330 | 0.9 | 0.9 | 0.00 | 0.00 | 0.00 | 85 | 1017.0 |
| 20260505113403 | 70 | 330 | 0.9 | 0.9 | 0.00 | 0.00 | 0.00 | 85 | 1017.0 |
| 20260505112400 | 70 | 330 | 0.9 | 0.9 | 0.00 | 0.00 | 0.00 | 85 | 1017.0 |
| 20260505111358 | 70 | 330 | 0.9 | 0.9 | 0.00 | 0.00 | 0.00 | 85 | 1017.0 |
| 20260505110357 | 70 | 330 | 0.9 | 0.9 | 0.00 | 0.00 | 0.00 | 85 | 1017.0 |
| 20260505101347 | 70 | 330 | 0.9 | 0.9 | 0.00 | 0.00 | 0.00 | 85 | 1017.0 |
| 20260505100345 | 70 | 330 | 0.9 | 0.9 | 0.00 | 0.00 | 0.00 | 85 | 1017.0 |
| 20260505095344 | 70 | 330 | 0.9 | 0.9 | 0.00 | 0.00 | 0.00 | 85 | 1017.0 |
| 20260505094342 | 70 | 330 | 0.9 | 0.9 | 0.00 | 0.00 | 0.00 | 85 | 1017.0 |
| 20260505093340 | 70 | 330 | 0.9 | 0.9 | 0.00 | 0.00 | 0.00 | 85 | 1017.0 |
| 20260505092338 | 70 | 330 | 0.9 | 0.9 | 0.00 | 0.00 | 0.00 | 85 | 1016.0 |
| 20260505091336 | 70 | 330 | 0.9 | 0.9 | 0.00 | 0.00 | 0.00 | 85 | 1016.0 |
| 20260505090333 | 70 | 330 | 0.9 | 0.9 | 0.00 | 0.00 | 0.00 | 85 | 1016.0 |
| 20260505085331 | 70 | 330 | 0.9 | 0.9 | 0.00 | 0.00 | 0.00 | 85 | 1016.0 |
| 20260505084330 | 70 | 330 | 0.9 | 0.9 | 0.00 | 0.00 | 0.00 | 85 | 1016.0 |
| 20260505083329 | 70 | 330 | 0.9 | 0.9 | 0.00 | 0.00 | 0.00 | 85 | 1016.0 |
| 20260505082327 | 70 | 330 | 0.9 | 0.9 | 0.00 | 0.00 | 0.00 | 85 | 1016.0 |
| 20260505081325 | 70 | 330 | 0.9 | 0.9 | 0.00 | 0.00 | 0.00 | 85 | 1016.0 |
| 20260505080323 | 70 | 330 | 0.9 | 0.9 | 0.00 | 0.00 | 0.00 | 85 | 1016.0 |
| 20260505075322 | 70 | 330 | 0.9 | 0.9 | 0.00 | 0.00 | 0.00 | 85 | 1016.0 |
| 20260505074319 | 70 | 330 | 0.9 | 0.9 | 0.00 | 0.00 | 0.00 | 85 | 1016.0 |
| 20260505073317 | 70 | 330 | 0.9 | 0.9 | 0.00 | 0.00 | 0.00 | 85 | 1016.0 |
| 20260505072314 | 70 | 330 | 0.9 | 0.9 | 0.00 | 0.00 | 0.00 | 85 | 1016.0 |
| 20260505071312 | 70 | 330 | 0.9 | 0.9 | 0.00 | 0.00 | 0.00 | 85 | 1016.0 |
| 20260505070310 | 70 | 330 | 0.9 | 0.9 | 0.00 | 0.00 | 0.00 | 85 | 1016.0 |
| 20260505065308 | 70 | 330 | 0.9 | 0.9 | 0.00 | 0.00 | 0.00 | 85 | 1016.0 |
| 20260505064307 | 70 | 330 | 0.9 | 0.9 | 0.00 | 0.00 | 0.00 | 85 | 1016.0 |
| 20260505063306 | 70 | 330 | 0.9 | 0.9 | 0.00 | 0.00 | 0.00 | 85 | 1016.0 |
| 20260505062304 | 70 | 330 | 0.9 | 0.9 | 0.00 | 0.00 | 0.00 | 85 | 1017.0 |
| 20260505061302 | 70 | 330 | 0.9 | 0.9 | 0.00 | 0.00 | 0.00 | 85 | 1017.0 |
| 20260505060301 | 70 | 330 | 0.9 | 0.9 | 0.00 | 0.00 | 0.00 | 85 | 1017.0 |
| 20260505055300 | 70 | 330 | 0.9 | 0.9 | 0.00 | 0.00 | 0.00 | 85 | 1017.0 |
| 20260505054258 | 70 | 330 | 0.9 | 0.9 | 0.00 | 0.00 | 0.00 | 85 | 1017.0 |
| 20260505053257 | 70 | 330 | 0.9 | 0.9 | 0.00 | 0.00 | 0.00 | 85 | 1017.0 |
| 20260505052255 | 70 | 330 | 0.9 | 0.9 | 0.00 | 0.00 | 0.00 | 85 | 1017.0 |
| 20260505051253 | 70 | 330 | 0.9 | 0.9 | 0.00 | 0.00 | 0.00 | 85 | 1018.0 |
| 20260505050250 | 70 | 330 | 0.9 | 0.9 | 0.00 | 0.00 | 0.00 | 85 | 1018.0 |
| 20260505041239 | 70 | 330 | 0.9 | 0.9 | 0.00 | 0.00 | 0.00 | 85 | 1017.0 |
| 20260505040236 | 70 | 330 | 0.9 | 0.9 | 0.00 | 0.00 | 0.00 | 85 | 1017.0 |
| 20260505035234 | 70 | 330 | 0.9 | 0.9 | 0.00 | 0.00 | 0.00 | 85 | 1018.0 |
| 20260505034232 | 70 | 330 | 1.7 | 1.7 | 0.00 | 0.00 | 0.00 | 85 | 1018.0 |
| 20260505033231 | 73 | 321 | 0.9 | 0.9 | 0.00 | 0.00 | 0.00 | 83 | 1018.0 |
| 20260505032229 | 73 | 321 | 0.9 | 0.9 | 0.00 | 0.00 | 0.00 | 83 | 1018.0 |
| 20260505031226 | 73 | 321 | 0.9 | 0.9 | 0.00 | 0.00 | 0.00 | 83 | 1017.0 |
| 20260505030224 | 73 | 321 | 0.9 | 0.9 | 0.00 | 0.00 | 0.00 | 83 | 1017.0 |
| 20260505025222 | 73 | 321 | 0.9 | 0.9 | 0.00 | 0.00 | 0.00 | 83 | 1018.0 |
| 20260505024221 | 73 | 321 | 0.9 | 0.9 | 0.00 | 0.00 | 0.00 | 83 | 1018.0 |
| 20260505023220 | 73 | 321 | 0.9 | 0.9 | 0.00 | 0.00 | 0.00 | 83 | 1018.0 |
| 20260505022218 | 73 | 321 | 0.9 | 0.9 | 0.00 | 0.00 | 0.00 | 83 | 1018.0 |
| 20260505021217 | 73 | 321 | 0.9 | 0.9 | 0.00 | 0.00 | 0.00 | 83 | 1018.0 |
| 20260505020215 | 73 | 321 | 0.9 | 0.9 | 0.00 | 0.00 | 0.00 | 83 | 1018.0 |
| 20260505015214 | 73 | 321 | 0.9 | 0.9 | 0.00 | 0.00 | 0.00 | 83 | 1018.0 |
| 20260505014213 | 73 | 321 | 0.9 | 0.9 | 0.00 | 0.00 | 0.00 | 83 | 1018.0 |
| 20260505013211 | 73 | 321 | 0.9 | 0.9 | 0.00 | 0.00 | 0.00 | 83 | 1018.0 |
| 20260505012210 | 73 | 321 | 0.9 | 1.7 | 0.00 | 0.00 | 0.00 | 83 | 1017.0 |
| 20260505011207 | 74 | 321 | 0.9 | 1.7 | 0.00 | 0.00 | 0.00 | 83 | 1017.0 |
| 20260505010205 | 74 | 321 | 0.9 | 1.7 | 0.00 | 0.00 | 0.00 | 84 | 1017.0 |
| 20260505005202 | 74 | 321 | 0.9 | 1.7 | 0.00 | 0.00 | 0.00 | 84 | 1017.0 |
| 20260505004201 | 74 | 321 | 0.9 | 1.7 | 0.00 | 0.00 | 0.00 | 83 | 1017.0 |
| 20260505003159 | 75 | 321 | 0.9 | 1.7 | 0.00 | 0.00 | 0.00 | 85 | 1017.0 |
| 20260505002156 | 76 | 274 | 0.9 | 0.9 | 0.00 | 0.00 | 0.00 | 81 | 1017.0 |
| 20260505001155 | 76 | 274 | 0.9 | 0.9 | 0.00 | 0.00 | 0.00 | 81 | 1017.0 |
| 20260505000153 | 76 | 274 | 0.9 | 0.9 | 0.00 | 0.00 | 0.00 | 83 | 1017.0 |
| 20260504235152 | 76 | 274 | 0.9 | 0.9 | 0.00 | 0.00 | 0.00 | 83 | 1017.0 |
| 20260504234151 | 76 | 274 | 0.9 | 0.9 | 0.00 | 0.00 | 0.00 | 80 | 1017.0 |
| 20260504233149 | 77 | 274 | 0.9 | 0.9 | 0.00 | 0.00 | 0.00 | 80 | 1017.0 |
| 20260504232148 | 78 | 221 | 1.7 | 1.7 | 0.00 | 0.00 | 0.00 | 74 | 1016.0 |
| 20260504231145 | 78 | 221 | 1.7 | 1.7 | 0.00 | 0.00 | 0.00 | 75 | 1016.0 |
| 20260504230144 | 78 | 221 | 1.7 | 1.7 | 0.00 | 0.00 | 0.00 | 76 | 1016.0 |
| 20260504225142 | 78 | 221 | 1.7 | 1.7 | 0.00 | 0.00 | 0.00 | 76 | 1016.0 |
| 20260504224140 | 78 | 221 | 1.7 | 1.7 | 0.00 | 0.00 | 0.00 | 72 | 1016.0 |
| 20260504223137 | 79 | 158 | 4.3 | 4.3 | 0.00 | 0.00 | 0.00 | 62 | 1016.0 |
| 20260504222136 | 79 | 158 | 4.3 | 4.3 | 0.00 | 0.00 | 0.00 | 62 | 1015.0 |
| 20260504221135 | 79 | 158 | 4.3 | 4.3 | 0.00 | 0.00 | 0.00 | 62 | 1015.0 |
| 20260504220133 | 79 | 158 | 4.3 | 4.3 | 0.00 | 0.00 | 0.00 | 62 | 1015.0 |
| 20260504215132 | 79 | 158 | 4.3 | 4.3 | 0.00 | 0.00 | 0.00 | 62 | 1015.0 |
| 20260504214131 | 79 | 158 | 4.3 | 4.3 | 0.00 | 0.00 | 0.00 | 62 | 1015.0 |
| 20260504213129 | 79 | 158 | 4.3 | 4.3 | 0.00 | 0.00 | 0.00 | 62 | 1015.0 |
| 20260504212127 | 79 | 158 | 4.3 | 4.3 | 0.00 | 0.00 | 0.00 | 62 | 1015.0 |
| 20260504211114 | 79 | 158 | 4.3 | 4.3 | 0.00 | 0.00 | 0.00 | 62 | 1015.0 |
| 20260504210113 | 79 | 158 | 4.3 | 4.3 | 0.00 | 0.00 | 0.00 | 62 | 1015.0 |
| 20260504205106 | 79 | 158 | 4.3 | 4.3 | 0.00 | 0.00 | 0.00 | 62 | 1015.0 |
| 20260504204105 | 79 | 158 | 4.3 | 4.3 | 0.00 | 0.00 | 0.00 | 62 | 1015.0 |
| 20260504203103 | 79 | 158 | 4.3 | 4.3 | 0.00 | 0.00 | 0.00 | 62 | 1015.0 |
| 20260504202100 | 79 | 158 | 4.3 | 4.3 | 0.00 | 0.00 | 0.00 | 62 | 1015.0 |
| 20260504201059 | 79 | 158 | 4.3 | 4.3 | 0.00 | 0.00 | 0.00 | 62 | 1015.0 |
| 20260504200058 | 79 | 158 | 4.3 | 4.3 | 0.00 | 0.00 | 0.00 | 62 | 1015.0 |
| 20260504195056 | 79 | 158 | 4.3 | 4.3 | 0.00 | 0.00 | 0.00 | 62 | 1015.0 |
| 20260504194055 | 79 | 158 | 4.3 | 4.3 | 0.00 | 0.00 | 0.00 | 62 | 1015.0 |
| 20260504193053 | 79 | 158 | 4.3 | 4.3 | 0.00 | 0.00 | 0.00 | 62 | 1015.0 |
| 20260504192052 | 79 | 158 | 4.3 | 4.3 | 0.00 | 0.00 | 0.00 | 62 | 1016.0 |
| 20260504191051 | 79 | 158 | 4.3 | 4.3 | 0.00 | 0.00 | 0.00 | 62 | 1016.0 |
| 20260504190049 | 79 | 158 | 4.3 | 4.3 | 0.00 | 0.00 | 0.00 | 62 | 1016.0 |
| 20260504185048 | 79 | 158 | 4.3 | 4.3 | 0.00 | 0.00 | 0.00 | 62 | 1016.0 |
| 20260504184046 | 79 | 158 | 4.3 | 4.3 | 0.00 | 0.00 | 0.00 | 62 | 1016.0 |
| 20260504183044 | 79 | 158 | 4.3 | 4.3 | 0.00 | 0.00 | 0.00 | 62 | 1016.0 |
| 20260504182042 | 79 | 158 | 4.3 | 4.3 | 0.00 | 0.00 | 0.00 | 62 | 1016.0 |
| 20260504181040 | 79 | 158 | 4.3 | 4.3 | 0.00 | 0.00 | 0.00 | 62 | 1016.0 |